This is the latest recevied weather packets stored in our database for station/object SP3VBV-2. If no packets are shown the sender has not sent any weather packets the latest 10 day(s).
| Time | Temp. | Humidity | Pressure | Rain* | Wind** | Luminosity | Snow |
|---|---|---|---|---|---|---|---|
| 1777533631 | 7.22° C | 49% | 1031 hPa | - | - | - | - |
| 1777533031 | 6.67° C | 47% | 1031 hPa | - | - | - | - |
| 1777532431 | 6.11° C | 50% | 1031 hPa | - | - | - | - |
| 1777531831 | 5.56° C | 54% | 1031.1 hPa | - | - | - | - |
| 1777531231 | 5° C | 58% | 1031.2 hPa | - | - | - | - |
| 1777530631 | 5° C | 57% | 1031.1 hPa | - | - | - | - |
| 1777530031 | 4.44° C | 62% | 1031.1 hPa | - | - | - | - |
| 1777529431 | 3.33° C | 65% | 1031 hPa | - | - | - | - |
| 1777528831 | 2.78° C | 64% | 1031 hPa | - | - | - | - |
| 1777528231 | 2.22° C | 67% | 1031.1 hPa | - | - | - | - |
| 1777527631 | 2.22° C | 65% | 1031.1 hPa | - | - | - | - |
| 1777527031 | 1.67° C | 67% | 1031.1 hPa | - | - | - | - |
| 1777526687 | 1.67° C | 68% | 1031.2 hPa | - | - | - | - |
| 1777525832 | 1.11° C | 71% | 1031.2 hPa | - | - | - | - |
| 1777524711 | 0.56° C | 75% | 1031.2 hPa | - | - | - | - |
| 1777524110 | 0.56° C | 76% | 1031.2 hPa | - | - | - | - |
| 1777523509 | 0° C | 82% | 1031.1 hPa | - | - | - | - |
| 1777522911 | -0.56° C | 80% | 1031 hPa | - | - | - | - |
| 1777522310 | -1.11° C | 87% | 1031 hPa | - | - | - | - |
| 1777521108 | -1.11° C | 87% | 1030.9 hPa | - | - | - | - |
| 1777521026 | -1.11° C | 82% | 1030.9 hPa | - | - | - | - |
| 1777520506 | -1.11° C | 83% | 1030.9 hPa | - | - | - | - |
| 1777519900 | -1.11° C | 86% | 1030.8 hPa | - | - | - | - |
| 1777519300 | -1.11° C | 83% | 1031 hPa | - | - | - | - |
| 1777518112 | -1.11° C | 82% | 1030.9 hPa | - | - | - | - |
* Rain since midnight (hover to see other rain measurements)
** Current wind speed in m/s (hover to see current wind gust speed)